SLOA4: Illinois River nr Siloam Springs AR

Data processed at Fri Mar 09 2018 23:17


All information presented herein is the property of the government of the United States of America and may be revised or deleted at any time without prior notice.
Dissemination of this information without the expressed written consent of the Public Affairs Office, Tulsa District U.S. Army Corps of Engineers is strictly prohibited.
These data are gathered electronically and, as presented, have not undergone any form of quality control. These data are not guaranteed to be valid or correct.
Go to home page.
Go to station list.

Upstream stations:

Downstream station:
Previous Day
Next Day
Current Day
    
SHEF ID:       SLOA4     Illinois River South of Siloam S
STATION TYPE:  

                STAGE  RIV-FLOW  BAT-LOAD
                   ft       cfs      volt
              Ccp-Rev   Ccp-Rev   Ccp-Rev
(US/Central)
03/07 00:00      4.19      1129     12.42
03/07 01:00      4.19      1129     12.36
03/07 02:00      4.19      1129     12.36
03/07 03:00      4.15       931     12.36
03/07 04:00      4.16       938     12.30
03/07 05:00      4.16       938     12.30
03/07 06:00      4.13       916     12.24
03/07 07:00      4.13       916     12.24
03/07 08:00      4.14       923     12.24
03/07 09:00      4.14       923     12.71
03/07 10:00      4.12       909     13.42
03/07 11:00      4.11       902     14.18
03/07 12:00      4.14       923     14.41
03/07 13:00      4.13       916     14.41
03/07 14:00      4.10       894     14.35
03/07 15:00      4.11       902     14.30
03/07 16:00      4.13       916     14.24
03/07 17:00      4.10       894     14.12
03/07 18:00      4.07       871     13.94
03/07 19:00      4.04       848     13.36
03/07 20:00      4.06       864     12.77
03/07 21:00      4.05       856     12.48
03/07 22:00      4.05       856     12.48
03/07 23:00      4.03       841     12.42